createdAt,value
2023-10-23T00:00:12.508Z,4.60
2023-10-23T00:02:41.230Z,4.60
2023-10-23T00:05:10.322Z,4.60
2023-10-23T00:07:39.150Z,4.60
2023-10-23T00:10:08.614Z,4.70
2023-10-23T00:12:39.168Z,4.70
2023-10-23T00:15:08.376Z,4.70
2023-10-23T00:17:37.025Z,4.70
2023-10-23T00:20:06.032Z,4.70
2023-10-23T00:22:34.699Z,4.80
2023-10-23T00:25:03.327Z,4.80
2023-10-23T00:27:32.001Z,4.90
2023-10-23T00:30:02.722Z,4.90
2023-10-23T00:32:31.448Z,4.90
2023-10-23T00:35:00.228Z,4.90
2023-10-23T00:37:28.887Z,5.00
2023-10-23T00:39:57.519Z,5.10
2023-10-23T00:42:26.206Z,5.20
2023-10-23T00:44:54.858Z,5.20
2023-10-23T00:47:25.303Z,5.30
2023-10-23T00:49:54.050Z,5.30
2023-10-23T00:52:22.631Z,5.20
2023-10-23T00:54:51.370Z,5.30
2023-10-23T00:57:20.276Z,5.30
2023-10-23T00:59:49.098Z,5.30
2023-10-23T01:02:18.142Z,5.30
2023-10-23T01:04:48.814Z,5.30
2023-10-23T01:07:17.580Z,5.30
2023-10-23T01:09:46.302Z,5.40
2023-10-23T01:12:14.951Z,5.40
2023-10-23T01:14:43.575Z,5.40
2023-10-23T01:17:12.154Z,5.40
2023-10-23T01:19:40.745Z,5.40
2023-10-23T01:22:11.247Z,5.40
2023-10-23T01:24:42.488Z,5.40
2023-10-23T01:27:12.599Z,5.40
2023-10-23T01:29:41.209Z,5.40
2023-10-23T01:32:09.841Z,5.40
2023-10-23T01:34:38.753Z,5.40
2023-10-23T01:37:09.947Z,5.30
2023-10-23T01:39:38.613Z,5.30
2023-10-23T01:42:07.625Z,5.30
2023-10-23T01:44:39.432Z,5.30
2023-10-23T01:47:11.083Z,5.30
2023-10-23T01:49:39.883Z,5.20
2023-10-23T01:52:08.535Z,5.20
2023-10-23T01:54:39.965Z,5.20
2023-10-23T01:57:08.743Z,5.20
2023-10-23T01:59:38.811Z,5.20
2023-10-23T02:02:07.643Z,5.20
2023-10-23T02:04:37.029Z,5.10
2023-10-23T02:07:05.790Z,5.20
2023-10-23T02:09:34.730Z,5.20
2023-10-23T02:12:03.563Z,5.20
2023-10-23T02:14:32.238Z,5.30
2023-10-23T02:17:02.464Z,5.20
2023-10-23T02:19:31.835Z,5.20
2023-10-23T02:22:00.506Z,5.20
2023-10-23T02:24:29.213Z,5.20
2023-10-23T02:27:01.020Z,5.30
2023-10-23T02:29:29.676Z,5.30
2023-10-23T02:31:58.310Z,5.30
2023-10-23T02:34:28.404Z,5.30
2023-10-23T02:36:56.130Z,5.30
2023-10-23T02:39:24.806Z,5.30
2023-10-23T02:41:53.392Z,5.30
2023-10-23T02:44:22.015Z,5.40
2023-10-23T02:46:52.518Z,5.30
2023-10-23T02:49:21.465Z,5.30
2023-10-23T02:51:51.684Z,5.30
2023-10-23T02:54:21.097Z,5.30
2023-10-23T02:56:49.791Z,5.40
2023-10-23T02:59:18.445Z,5.30
2023-10-23T03:01:47.253Z,5.30
2023-10-23T03:04:16.010Z,5.40
2023-10-23T03:06:45.090Z,5.30
2023-10-23T03:09:15.574Z,5.30
2023-10-23T03:11:44.146Z,5.30
2023-10-23T03:14:12.743Z,5.30
2023-10-23T03:16:41.469Z,5.30
2023-10-23T03:19:10.262Z,5.30
2023-10-23T03:21:39.236Z,5.30
2023-10-23T03:24:08.419Z,5.30
2023-10-23T03:26:38.611Z,5.30
2023-10-23T03:29:07.392Z,5.30
2023-10-23T03:31:36.506Z,5.30
2023-10-23T03:34:05.459Z,5.30
2023-10-23T03:36:34.211Z,5.30
2023-10-23T03:39:02.984Z,5.30
2023-10-23T03:41:31.639Z,5.30
2023-10-23T03:44:03.537Z,5.30
2023-10-23T03:46:33.151Z,5.30
2023-10-23T03:49:01.947Z,5.20
2023-10-23T03:51:30.641Z,5.20
2023-10-23T03:53:59.318Z,5.20
2023-10-23T03:56:27.925Z,5.20
2023-10-23T03:58:56.526Z,5.10
2023-10-23T04:01:26.674Z,5.10
2023-10-23T04:03:55.862Z,5.20
2023-10-23T04:06:24.577Z,5.10
2023-10-23T04:08:53.934Z,5.20
2023-10-23T04:11:23.243Z,5.10
2023-10-23T04:13:51.796Z,5.10
2023-10-23T04:16:23.352Z,5.20
2023-10-23T04:18:53.513Z,5.20
2023-10-23T04:21:25.462Z,5.20
2023-10-23T04:23:54.190Z,5.20
2023-10-23T04:26:22.784Z,5.20
2023-10-23T04:28:53.796Z,5.20
2023-10-23T04:31:22.477Z,5.10
2023-10-23T04:33:51.190Z,5.20
2023-10-23T04:36:22.183Z,5.20
2023-10-23T04:38:50.822Z,5.20
2023-10-23T04:41:21.604Z,5.10
2023-10-23T04:43:50.301Z,5.10
2023-10-23T04:46:19.144Z,5.10
2023-10-23T04:48:47.854Z,5.10
2023-10-23T04:51:16.501Z,5.10
2023-10-23T04:53:46.623Z,5.10
2023-10-23T04:56:15.257Z,5.10
2023-10-23T04:58:44.897Z,5.10
2023-10-23T05:01:19.768Z,5.20
2023-10-23T05:03:51.652Z,5.20
2023-10-23T05:06:25.847Z,5.20
2023-10-23T05:08:56.071Z,5.20
2023-10-23T05:11:24.693Z,5.20
2023-10-23T05:13:53.431Z,5.10
2023-10-23T05:16:24.659Z,5.20
2023-10-23T05:18:56.509Z,5.20
2023-10-23T05:21:25.272Z,5.20
2023-10-23T05:23:53.980Z,5.20
2023-10-23T05:26:24.058Z,5.20
2023-10-23T05:28:54.855Z,5.20
2023-10-23T05:31:23.468Z,5.20
2023-10-23T05:33:53.457Z,5.20
2023-10-23T05:36:24.016Z,5.20
2023-10-23T05:38:52.662Z,5.20
2023-10-23T05:41:24.134Z,5.20
2023-10-23T05:43:54.334Z,5.20
2023-10-23T05:46:24.260Z,5.20
2023-10-23T05:48:52.931Z,5.20
2023-10-23T05:51:21.611Z,5.20
2023-10-23T05:53:51.295Z,5.20
2023-10-23T05:56:20.987Z,5.20
2023-10-23T05:58:50.246Z,5.20
2023-10-23T06:01:20.518Z,5.20
2023-10-23T06:03:49.301Z,5.20
2023-10-23T06:06:19.078Z,5.20
2023-10-23T06:08:47.734Z,5.20
2023-10-23T06:11:16.319Z,5.30
2023-10-23T06:13:44.953Z,5.30
2023-10-23T06:16:13.603Z,5.30
2023-10-23T06:18:43.836Z,5.30
2023-10-23T06:21:12.484Z,5.30
2023-10-23T06:23:41.762Z,5.30
2023-10-23T06:26:10.432Z,5.30
2023-10-23T06:28:39.447Z,5.30
2023-10-23T06:31:08.420Z,5.30
2023-10-23T06:33:37.950Z,5.30
2023-10-23T06:36:09.329Z,5.30
2023-10-23T06:38:38.045Z,5.40
2023-10-23T06:41:07.103Z,5.40
2023-10-23T06:43:35.821Z,5.40
2023-10-23T06:46:05.063Z,5.40
2023-10-23T06:48:33.956Z,5.40
2023-10-23T06:51:02.922Z,5.40
2023-10-23T06:53:33.003Z,5.40
2023-10-23T06:56:01.592Z,5.40
2023-10-23T06:58:30.265Z,5.40
2023-10-23T07:00:58.905Z,5.40
2023-10-23T07:03:27.644Z,5.40
2023-10-23T07:05:56.417Z,5.40
2023-10-23T07:08:25.069Z,5.40
2023-10-23T07:10:55.497Z,5.40
2023-10-23T07:13:24.559Z,5.40
2023-10-23T07:15:53.452Z,5.40
2023-10-23T07:18:24.471Z,5.40
2023-10-23T07:20:57.042Z,5.40
2023-10-23T07:23:25.991Z,5.40
2023-10-23T07:26:15.098Z,5.40
2023-10-23T07:28:46.482Z,5.40
2023-10-23T07:31:15.136Z,5.40
2023-10-23T07:33:43.804Z,5.40
2023-10-23T07:36:18.280Z,5.50
2023-10-23T07:38:47.045Z,5.50
2023-10-23T07:41:15.723Z,5.50
2023-10-23T07:43:48.501Z,5.50
2023-10-23T07:46:18.477Z,5.60
2023-10-23T07:48:47.628Z,5.60
2023-10-23T07:51:18.930Z,5.70
2023-10-23T07:53:47.647Z,5.70
2023-10-23T07:56:16.281Z,5.80
2023-10-23T07:58:48.904Z,5.80
2023-10-23T08:01:18.101Z,5.90
2023-10-23T08:03:46.877Z,5.90
2023-10-23T08:06:17.536Z,5.90
2023-10-23T08:08:46.590Z,5.90
2023-10-23T08:11:15.555Z,5.80
2023-10-23T08:13:45.760Z,5.80
2023-10-23T08:16:14.542Z,5.80
2023-10-23T08:18:43.210Z,5.80
2023-10-23T08:21:12.946Z,5.80
2023-10-23T08:23:41.708Z,5.70
2023-10-23T08:26:10.497Z,5.80
2023-10-23T08:31:24.861Z,5.70
2023-10-23T08:33:58.930Z,5.70
2023-10-23T08:36:27.753Z,5.80
2023-10-23T08:38:56.422Z,5.80
2023-10-23T08:41:26.794Z,5.80
2023-10-23T08:43:56.904Z,5.80
2023-10-23T08:46:31.126Z,5.80
2023-10-23T08:49:00.453Z,5.80
2023-10-23T08:51:29.357Z,5.90
2023-10-23T08:56:34.775Z,5.90
2023-10-23T08:59:04.491Z,5.90
2023-10-23T09:01:37.477Z,5.90
2023-10-23T09:04:07.898Z,5.80
2023-10-23T09:06:37.458Z,5.90
2023-10-23T09:09:06.837Z,5.90
2023-10-23T09:11:45.448Z,5.80
2023-10-23T09:14:24.652Z,5.80
2023-10-23T09:16:58.925Z,5.80
2023-10-23T09:19:28.636Z,5.90
2023-10-23T09:21:58.350Z,5.90
2023-10-23T09:24:27.187Z,5.90
2023-10-23T09:26:55.863Z,6.00
2023-10-23T09:29:25.213Z,6.00
2023-10-23T09:31:58.925Z,6.00
2023-10-23T09:34:27.966Z,6.10
2023-10-23T09:36:56.950Z,6.10
2023-10-23T09:39:25.903Z,6.10
2023-10-23T09:41:54.945Z,6.10
2023-10-23T09:44:25.847Z,6.10
2023-10-23T09:47:04.699Z,6.20
2023-10-23T09:49:33.967Z,6.20
2023-10-23T09:52:02.973Z,6.20
2023-10-23T09:54:33.108Z,6.10
2023-10-23T09:57:05.132Z,6.20
2023-10-23T09:59:37.340Z,6.20
2023-10-23T10:02:08.327Z,6.30
2023-10-23T10:04:39.528Z,6.40
2023-10-23T10:07:11.201Z,6.40
2023-10-23T10:09:40.801Z,6.40
2023-10-23T10:12:09.799Z,6.50
2023-10-23T10:14:38.797Z,6.60
2023-10-23T10:17:09.775Z,6.70
2023-10-23T10:19:40.183Z,6.80
2023-10-23T10:22:11.169Z,7.00
2023-10-23T10:24:40.022Z,7.00
2023-10-23T10:27:09.219Z,6.90
2023-10-23T10:29:37.971Z,6.90
2023-10-23T10:32:10.944Z,6.90
2023-10-23T10:34:55.938Z,6.90
2023-10-23T10:37:27.090Z,6.90
2023-10-23T10:40:06.206Z,7.10
2023-10-23T10:42:38.420Z,7.10
2023-10-23T10:45:16.636Z,7.10
2023-10-23T10:47:49.939Z,7.00
2023-10-23T10:50:36.010Z,6.90
2023-10-23T10:53:05.649Z,6.80
2023-10-23T10:55:34.570Z,6.80
2023-10-23T10:58:03.499Z,6.90
2023-10-23T11:00:33.042Z,6.90
2023-10-23T11:03:01.941Z,6.90
2023-10-23T11:05:30.659Z,6.80
2023-10-23T11:16:19.494Z,6.60
2023-10-23T11:18:49.861Z,6.70
2023-10-23T11:21:23.589Z,6.70
2023-10-23T11:23:52.342Z,6.70
2023-10-23T11:26:20.960Z,6.80
2023-10-23T11:28:49.682Z,6.90
2023-10-23T11:31:18.429Z,6.90
2023-10-23T11:33:52.876Z,6.90
2023-10-23T11:36:23.583Z,7.00
2023-10-23T11:38:52.998Z,7.10
2023-10-23T11:41:23.596Z,7.20
2023-10-23T11:44:01.495Z,7.20
2023-10-23T11:46:35.167Z,7.10
2023-10-23T11:49:04.403Z,7.00
2023-10-23T11:51:34.602Z,7.00
2023-10-23T11:54:05.059Z,7.00
2023-10-23T11:56:34.010Z,6.80
2023-10-23T11:59:05.755Z,6.80
2023-10-23T12:01:34.498Z,7.00
2023-10-23T12:04:03.864Z,6.90
2023-10-23T12:06:34.205Z,7.10
2023-10-23T12:09:02.934Z,7.10
2023-10-23T12:11:31.585Z,7.00
2023-10-23T12:14:00.983Z,7.00
2023-10-23T12:16:29.673Z,7.00
2023-10-23T12:18:58.357Z,7.00
2023-10-23T12:21:27.392Z,6.80
2023-10-23T12:23:57.662Z,6.90
2023-10-23T12:26:27.076Z,6.80
2023-10-23T12:28:55.819Z,6.90
2023-10-23T12:31:27.409Z,6.90
2023-10-23T12:33:56.282Z,6.80
2023-10-23T12:36:31.853Z,6.80
2023-10-23T12:39:02.011Z,6.90
2023-10-23T12:41:30.683Z,7.00
2023-10-23T12:43:59.277Z,6.90
2023-10-23T12:46:27.944Z,6.90
2023-10-23T12:48:56.627Z,6.80
2023-10-23T12:51:25.667Z,6.80
2023-10-23T12:53:54.352Z,6.70
2023-10-23T12:56:24.454Z,6.70
2023-10-23T12:58:53.053Z,6.80
2023-10-23T13:01:21.722Z,6.70
2023-10-23T13:03:50.581Z,6.70
2023-10-23T13:06:19.976Z,6.70
2023-10-23T13:08:49.374Z,6.70
2023-10-23T13:11:18.093Z,6.60
2023-10-23T13:13:48.144Z,6.60
2023-10-23T13:16:16.759Z,6.50
2023-10-23T13:18:52.971Z,6.60
2023-10-23T13:21:32.975Z,6.60
2023-10-23T13:24:03.807Z,6.50
2023-10-23T13:26:32.415Z,6.40
2023-10-23T13:29:02.531Z,6.40
2023-10-23T13:31:33.602Z,6.30
2023-10-23T13:34:02.325Z,6.20
2023-10-23T13:36:30.973Z,6.30
2023-10-23T13:39:00.312Z,6.40
2023-10-23T13:41:29.023Z,6.40
2023-10-23T13:43:57.615Z,6.60
2023-10-23T13:46:27.827Z,6.50
2023-10-23T13:48:56.662Z,6.50
2023-10-23T13:51:25.334Z,6.40
2023-10-23T13:53:54.033Z,6.40
2023-10-23T13:56:22.734Z,6.40
2023-10-23T13:58:53.456Z,6.40
2023-10-23T14:01:22.137Z,6.40
2023-10-23T14:03:53.727Z,6.50
2023-10-23T14:06:22.388Z,6.50
2023-10-23T14:09:41.898Z,6.30
2023-10-23T14:11:59.416Z,6.40
2023-10-23T14:14:30.514Z,6.30
2023-10-23T14:16:59.834Z,6.20
2023-10-23T14:19:45.745Z,6.30
2023-10-23T14:22:16.977Z,6.40
2023-10-23T14:24:45.652Z,6.30
2023-10-23T14:27:14.353Z,6.30
2023-10-23T14:29:43.133Z,6.20
2023-10-23T14:32:12.131Z,6.20
2023-10-23T14:34:42.462Z,6.20
2023-10-23T14:37:11.247Z,6.20
2023-10-23T14:39:40.168Z,6.10
2023-10-23T14:42:09.226Z,6.10
2023-10-23T14:44:37.898Z,6.00
2023-10-23T14:47:07.119Z,6.00
2023-10-23T14:49:36.316Z,6.00
2023-10-23T14:52:06.686Z,6.00
2023-10-23T14:54:35.452Z,6.00
2023-10-23T14:57:04.214Z,6.00
2023-10-23T14:59:32.921Z,6.00
2023-10-23T15:02:01.587Z,6.00
2023-10-23T15:04:30.331Z,6.00
2023-10-23T15:06:59.236Z,5.90
2023-10-23T15:09:30.074Z,5.90
2023-10-23T15:11:58.709Z,5.90
2023-10-23T15:14:27.271Z,5.90
2023-10-23T15:16:55.908Z,5.90
2023-10-23T15:19:24.718Z,5.90
2023-10-23T15:21:53.860Z,5.90
2023-10-23T15:24:23.056Z,5.90
2023-10-23T15:26:53.114Z,5.90
2023-10-23T15:29:21.764Z,5.90
2023-10-23T15:31:50.483Z,5.90
2023-10-23T15:34:19.407Z,5.80
2023-10-23T15:36:49.354Z,5.80
2023-10-23T15:39:18.455Z,5.80
2023-10-23T15:41:47.020Z,5.80
2023-10-23T15:44:18.227Z,5.80
2023-10-23T15:46:49.145Z,5.80
2023-10-23T15:49:18.072Z,5.70
2023-10-23T15:51:47.253Z,5.70
2023-10-23T15:54:15.892Z,5.70
2023-10-23T15:56:47.558Z,5.70
2023-10-23T15:59:17.721Z,5.70
2023-10-23T16:01:46.617Z,5.70
2023-10-23T16:04:15.623Z,5.70
2023-10-23T16:06:45.070Z,5.70
2023-10-23T16:09:22.081Z,5.70
2023-10-23T16:12:09.721Z,5.70
2023-10-23T16:17:12.565Z,5.70
2023-10-23T16:19:41.193Z,5.70
2023-10-23T16:22:10.281Z,5.70
2023-10-23T16:24:39.100Z,5.70
2023-10-23T16:27:06.727Z,5.60
2023-10-23T16:29:35.354Z,5.60
2023-10-23T16:32:06.816Z,5.70
2023-10-23T16:34:35.579Z,5.70
2023-10-23T16:37:04.194Z,5.60
2023-10-23T16:39:32.935Z,5.60
2023-10-23T16:42:01.563Z,5.60
2023-10-23T16:44:44.469Z,5.60
2023-10-23T16:47:19.045Z,5.70
2023-10-23T16:49:48.450Z,5.60
2023-10-23T16:52:17.256Z,5.60
2023-10-23T16:57:16.078Z,5.60
2023-10-23T16:59:48.185Z,5.50
2023-10-23T17:02:19.806Z,5.50
2023-10-23T17:04:50.093Z,5.50
2023-10-23T17:07:18.806Z,5.50
2023-10-23T17:09:47.706Z,5.50
2023-10-23T22:54:42.850Z,5.70
2023-10-23T22:57:11.772Z,5.70
2023-10-23T22:59:40.866Z,5.70
2023-10-23T23:02:10.191Z,5.70
2023-10-23T23:04:39.529Z,5.70
2023-10-23T23:07:08.781Z,5.70
2023-10-23T23:09:37.900Z,5.70
2023-10-23T23:12:11.814Z,5.70
2023-10-23T23:14:41.024Z,5.70
2023-10-23T23:17:12.479Z,5.70
2023-10-23T23:19:42.654Z,5.70
2023-10-23T23:22:11.628Z,5.70
2023-10-23T23:24:40.660Z,5.70
2023-10-23T23:27:10.950Z,5.70
2023-10-23T23:29:39.685Z,5.70
2023-10-23T23:32:08.404Z,5.70
2023-10-23T23:34:37.221Z,5.70
2023-10-23T23:37:06.177Z,5.70
2023-10-23T23:39:34.883Z,5.60
2023-10-23T23:42:03.487Z,5.70
2023-10-23T23:44:33.662Z,5.70
2023-10-23T23:47:02.784Z,5.60
2023-10-23T23:49:31.481Z,5.60
2023-10-23T23:52:00.182Z,5.60
2023-10-23T23:54:28.832Z,5.60
2023-10-23T23:56:57.582Z,5.60
2023-10-23T23:59:26.253Z,5.60
